Time;durP1;ratioP1;P1;durP2;ratioP2;P2;SDS_P1;SDS_P2;PMS_P1;PMS_P2;Temp;Humidity;BMP_temperature;BMP_pressure;BME280_temperature;BME280_humidity;BME280_pressure;Samples;Min_cycle;Max_cycle;Signal;HPM_P1;HPM_P2
2021/12/02 00:01:37;;;;;;;1.38;0.85;;;;;;;;;;5039254;28;20096;-62
2021/12/02 00:04:03;;;;;;;3.28;0.70;;;;;;;;;;5036905;28;20029;-64
2021/12/02 00:06:29;;;;;;;2.22;0.93;;;;;;;;;;5038601;28;20040;-64
2021/12/02 00:08:55;;;;;;;2.90;0.98;;;;;;;;;;5038041;28;20652;-62
2021/12/02 00:11:23;;;;;;;5.88;0.80;;;;;;;;;;5038340;28;20024;-63
2021/12/02 00:16:29;;;;;;;2.95;0.90;;;;;;;;;;5036641;28;20326;-61
2021/12/02 00:21:42;;;;;;;3.78;1.15;;;;;;;;;;5037031;28;20108;-62
2021/12/02 00:24:12;;;;;;;2.38;1.10;;;;;;;;;;5038070;28;20119;-61
2021/12/02 00:26:38;;;;;;;2.15;1.17;;;;;;;;;;5036031;28;20032;-63
2021/12/02 00:29:05;;;;;;;2.10;0.75;;;;;;;;;;5037725;28;20101;-65
2021/12/02 00:31:32;;;;;;;3.92;1.10;;;;;;;;;;5039569;28;20045;-62
2021/12/02 00:34:02;;;;;;;2.80;1.05;;;;;;;;;;5038239;28;20075;-64
2021/12/02 00:36:29;;;;;;;3.83;1.20;;;;;;;;;;5039769;28;20123;-63
2021/12/02 00:38:56;;;;;;;3.90;1.42;;;;;;;;;;5038351;28;20324;-63
2021/12/02 00:41:23;;;;;;;3.15;1.05;;;;;;;;;;5038754;28;20186;-62
2021/12/02 00:43:55;;;;;;;3.08;1.20;;;;;;;;;;5038174;28;20991;-64
2021/12/02 00:46:22;;;;;;;1.92;0.80;;;;;;;;;;5039467;28;20028;-63
2021/12/02 00:48:48;;;;;;;2.97;1.15;;;;;;;;;;5040149;28;20014;-66
2021/12/02 00:51:14;;;;;;;4.72;1.30;;;;;;;;;;5041437;28;20041;-62
2021/12/02 00:53:46;;;;;;;4.38;1.20;;;;;;;;;;5042255;28;20582;-61
2021/12/02 00:56:13;;;;;;;1.95;0.98;;;;;;;;;;5038301;28;20041;-62
2021/12/02 00:58:39;;;;;;;3.33;1.20;;;;;;;;;;5039191;28;20032;-66
2021/12/02 01:01:05;;;;;;;2.30;0.90;;;;;;;;;;5037298;28;20053;-63
2021/12/02 01:03:34;;;;;;;1.92;0.60;;;;;;;;;;5037865;28;20040;-64
2021/12/02 01:06:04;;;;;;;2.13;1.08;;;;;;;;;;5038876;28;20033;-63
2021/12/02 01:08:33;;;;;;;2.03;0.80;;;;;;;;;;5038917;28;20032;-63
2021/12/02 01:11:01;;;;;;;3.70;1.15;;;;;;;;;;5038739;28;20040;-62
2021/12/02 01:13:27;;;;;;;2.47;0.80;;;;;;;;;;5038016;28;20136;-63
2021/12/02 01:15:55;;;;;;;1.77;0.70;;;;;;;;;;5039085;28;20029;-62
2021/12/02 01:18:21;;;;;;;1.23;0.75;;;;;;;;;;5036557;28;20032;-61
2021/12/02 01:20:49;;;;;;;6.63;1.15;;;;;;;;;;5036506;28;20029;-65
2021/12/02 01:23:18;;;;;;;4.03;0.85;;;;;;;;;;5036204;28;20570;-64
2021/12/02 01:25:47;;;;;;;2.00;0.80;;;;;;;;;;5036220;28;20466;-61
2021/12/02 01:28:15;;;;;;;1.90;0.52;;;;;;;;;;5037838;28;20097;-61
2021/12/02 01:30:41;;;;;;;1.50;0.80;;;;;;;;;;5039245;28;20029;-62
2021/12/02 01:33:07;;;;;;;1.88;0.50;;;;;;;;;;5038510;28;20102;-62
2021/12/02 01:35:33;;;;;;;1.80;0.60;;;;;;;;;;5016074;28;20024;-62
2021/12/02 01:37:58;;;;;;;0.77;0.63;;;;;;;;;;5054010;28;20032;-61
2021/12/02 01:40:24;;;;;;;3.05;0.95;;;;;;;;;;5037410;28;20473;-62
2021/12/02 01:42:54;;;;;;;1.30;0.68;;;;;;;;;;5037774;28;20036;-61
2021/12/02 01:45:21;;;;;;;2.78;0.95;;;;;;;;;;5067861;28;20028;-62
2021/12/02 01:47:48;;;;;;;1.45;0.65;;;;;;;;;;5036176;28;20032;-64
2021/12/02 01:50:20;;;;;;;1.70;0.70;;;;;;;;;;5035127;28;20029;-62
2021/12/02 01:52:46;;;;;;;;;;;;;;;;;;5038415;28;20458;-59
2021/12/02 01:55:15;;;;;;;2.03;0.45;;;;;;;;;;5039189;28;19920;-63
2021/12/02 01:57:42;;;;;;;2.45;0.80;;;;;;;;;;5041944;28;20036;-61
2021/12/02 02:00:14;;;;;;;3.28;1.08;;;;;;;;;;5054718;28;20656;-65
2021/12/02 02:02:41;;;;;;;2.67;0.80;;;;;;;;;;5037769;28;20039;-63
2021/12/02 02:05:12;;;;;;;2.67;0.73;;;;;;;;;;5038014;28;20036;-61
2021/12/02 02:07:41;;;;;;;2.50;1.00;;;;;;;;;;5035998;28;20435;-62
2021/12/02 02:10:12;;;;;;;3.92;1.00;;;;;;;;;;5036109;28;21204;-63
2021/12/02 02:12:38;;;;;;;3.25;0.85;;;;;;;;;;5038399;28;20037;-64
2021/12/02 02:15:04;;;;;;;1.60;0.93;;;;;;;;;;5034291;28;20111;-61
2021/12/02 02:17:36;;;;;;;3.15;1.20;;;;;;;;;;5038150;28;20039;-60
2021/12/02 02:20:05;;;;;;;2.40;0.93;;;;;;;;;;5037931;28;20087;-64
2021/12/02 02:22:30;;;;;;;1.83;0.98;;;;;;;;;;5038095;28;20036;-65
2021/12/02 02:25:00;;;;;;;2.08;0.80;;;;;;;;;;5037689;28;20017;-62
2021/12/02 02:27:26;;;;;;;1.52;0.60;;;;;;;;;;5036135;28;20578;-61
2021/12/02 02:29:54;;;;;;;1.63;0.60;;;;;;;;;;5037092;28;20056;-64
2021/12/02 02:32:24;;;;;;;3.20;0.82;;;;;;;;;;5039516;28;20112;-64
2021/12/02 02:34:49;;;;;;;1.95;0.73;;;;;;;;;;5036191;28;20033;-64
2021/12/02 02:37:17;;;;;;;1.58;0.90;;;;;;;;;;5036281;28;20397;-62
2021/12/02 02:39:42;;;;;;;1.40;0.63;;;;;;;;;;5038188;28;20033;-64
2021/12/02 02:42:10;;;;;;;1.60;0.73;;;;;;;;;;5037335;28;20447;-61
2021/12/02 02:44:36;;;;;;;2.25;0.75;;;;;;;;;;5039011;28;21974;-60
2021/12/02 02:47:02;;;;;;;1.92;0.68;;;;;;;;;;5035814;28;20086;-61
2021/12/02 02:49:27;;;;;;;0.68;0.55;;;;;;;;;;5041655;28;20041;-62
2021/12/02 02:51:53;;;;;;;1.27;0.50;;;;;;;;;;5037773;28;20113;-62
2021/12/02 02:54:19;;;;;;;1.67;0.68;;;;;;;;;;5036374;28;20565;-63
2021/12/02 02:56:50;;;;;;;2.05;0.90;;;;;;;;;;5034616;28;20653;-61
2021/12/02 02:59:33;;;;;;;3.40;0.57;;;;;;;;;;5035020;28;20034;-62
2021/12/02 03:02:14;;;;;;;2.42;0.77;;;;;;;;;;5035004;28;20553;-62
2021/12/02 03:04:54;;;;;;;2.75;0.80;;;;;;;;;;5040838;28;20467;-65
2021/12/02 03:07:26;;;;;;;1.13;0.40;;;;;;;;;;5073037;28;20048;-61
2021/12/02 03:12:39;;;;;;;0.70;0.38;;;;;;;;;;5040379;28;20041;-63
2021/12/02 03:17:33;;;;;;;1.13;0.55;;;;;;;;;;5040611;28;20025;-61
2021/12/02 03:19:59;;;;;;;2.15;0.60;;;;;;;;;;5040555;28;20031;-61
2021/12/02 03:22:25;;;;;;;1.45;0.70;;;;;;;;;;5039539;28;20025;-61
2021/12/02 03:24:51;;;;;;;0.88;0.50;;;;;;;;;;5039900;28;20549;-62
2021/12/02 03:27:16;;;;;;;0.30;0.30;;;;;;;;;;5039928;28;20120;-60
2021/12/02 03:29:42;;;;;;;2.58;0.80;;;;;;;;;;5073340;28;20800;-60
2021/12/02 03:32:08;;;;;;;1.50;0.80;;;;;;;;;;5038871;28;20143;-61
2021/12/02 03:34:34;;;;;;;2.58;0.70;;;;;;;;;;5038637;28;20040;-61
2021/12/02 03:37:02;;;;;;;1.35;0.50;;;;;;;;;;5035197;28;20080;-63
2021/12/02 03:39:27;;;;;;;1.42;0.30;;;;;;;;;;5039266;28;20033;-62
2021/12/02 03:41:54;;;;;;;1.02;0.43;;;;;;;;;;5039947;28;20025;-66
2021/12/02 03:44:21;;;;;;;1.27;0.45;;;;;;;;;;5039093;28;20104;-64
2021/12/02 03:46:47;;;;;;;2.17;0.57;;;;;;;;;;5041515;28;20032;-62
2021/12/02 03:49:12;;;;;;;0.85;0.30;;;;;;;;;;5040533;28;20362;-63
2021/12/02 03:51:38;;;;;;;0.28;0.28;;;;;;;;;;5037413;28;20102;-63
2021/12/02 03:54:04;;;;;;;0.75;0.30;;;;;;;;;;5041540;28;20041;-62
2021/12/02 03:56:30;;;;;;;0.65;0.63;;;;;;;;;;5039368;28;20022;-62
2021/12/02 03:58:55;;;;;;;1.10;0.30;;;;;;;;;;5042115;28;20039;-63
2021/12/02 04:01:22;;;;;;;0.55;0.30;;;;;;;;;;5035685;28;20059;-65
2021/12/02 04:03:49;;;;;;;1.08;0.50;;;;;;;;;;5043185;28;20378;-64
2021/12/02 04:06:18;;;;;;;0.32;0.22;;;;;;;;;;5043175;28;20021;-64
2021/12/02 04:08:51;;;;;;;0.38;0.30;;;;;;;;;;5041735;28;20059;-61
2021/12/02 04:11:43;;;;;;;0.13;0.10;;;;;;;;;;5039787;28;20088;-63
2021/12/02 04:16:51;;;;;;;1.15;0.40;;;;;;;;;;5039844;28;20033;-61
2021/12/02 04:19:17;;;;;;;0.45;0.40;;;;;;;;;;5041115;28;20056;-64
2021/12/02 04:21:43;;;;;;;0.75;0.30;;;;;;;;;;5040561;28;20952;-62
2021/12/02 04:24:11;;;;;;;0.88;0.38;;;;;;;;;;5038691;28;20126;-61
2021/12/02 04:26:39;;;;;;;1.83;0.40;;;;;;;;;;5036932;28;20386;-60
2021/12/02 04:29:04;;;;;;;1.45;0.20;;;;;;;;;;5037098;28;20522;-64
2021/12/02 04:31:29;;;;;;;0.60;0.30;;;;;;;;;;5039791;28;20058;-62
2021/12/02 04:33:55;;;;;;;1.58;0.50;;;;;;;;;;5038104;28;20966;-61
2021/12/02 04:36:23;;;;;;;0.52;0.20;;;;;;;;;;5025820;28;20423;-66
2021/12/02 04:38:48;;;;;;;1.00;0.30;;;;;;;;;;5037274;28;20033;-60
2021/12/02 04:41:16;;;;;;;1.33;0.28;;;;;;;;;;5038522;28;20510;-62
2021/12/02 04:43:41;;;;;;;0.75;0.40;;;;;;;;;;5037625;28;20114;-63
2021/12/02 04:46:07;;;;;;;0.68;0.40;;;;;;;;;;5069331;28;20475;-60
2021/12/02 04:48:32;;;;;;;0.43;0.20;;;;;;;;;;5040029;28;20164;-64
2021/12/02 04:51:01;;;;;;;0.70;0.28;;;;;;;;;;5068050;28;20021;-61
2021/12/02 04:53:26;;;;;;;0.40;0.20;;;;;;;;;;5039881;28;20103;-62
2021/12/02 04:55:51;;;;;;;0.35;0.20;;;;;;;;;;5038473;28;20621;-63
2021/12/02 04:58:17;;;;;;;0.90;0.52;;;;;;;;;;5037273;28;20032;-61
2021/12/02 05:00:43;;;;;;;0.30;0.20;;;;;;;;;;5035920;28;20562;-61
2021/12/02 05:03:08;;;;;;;0.60;0.30;;;;;;;;;;5037116;28;20466;-65
2021/12/02 05:05:34;;;;;;;1.25;0.25;;;;;;;;;;5039840;28;20031;-62
2021/12/02 05:08:03;;;;;;;1.15;0.22;;;;;;;;;;5038128;28;20037;-64
2021/12/02 05:10:29;;;;;;;0.60;0.50;;;;;;;;;;5036829;28;20030;-62
2021/12/02 05:12:55;;;;;;;1.50;0.60;;;;;;;;;;5038894;28;20042;-61
2021/12/02 05:15:23;;;;;;;0.22;0.17;;;;;;;;;;5037211;28;20024;-61
2021/12/02 05:17:48;;;;;;;0.40;0.25;;;;;;;;;;5023627;28;20087;-64
2021/12/02 05:20:13;;;;;;;1.65;0.40;;;;;;;;;;5036705;28;20423;-65
2021/12/02 05:22:41;;;;;;;1.48;0.43;;;;;;;;;;5037973;28;20037;-66
2021/12/02 05:25:07;;;;;;;0.68;0.35;;;;;;;;;;5050218;28;20029;-65
2021/12/02 05:27:34;;;;;;;1.65;0.35;;;;;;;;;;5036112;28;20033;-61
2021/12/02 05:30:00;;;;;;;0.47;0.25;;;;;;;;;;5036747;28;20116;-63
2021/12/02 05:32:30;;;;;;;1.08;0.52;;;;;;;;;;5038775;28;20182;-66
2021/12/02 05:34:58;;;;;;;0.57;0.30;;;;;;;;;;5035924;28;20509;-63
2021/12/02 05:37:23;;;;;;;0.10;0.10;;;;;;;;;;5036718;28;20033;-60
2021/12/02 05:39:52;;;;;;;0.82;0.25;;;;;;;;;;5040108;28;20512;-63
2021/12/02 05:42:18;;;;;;;0.82;0.10;;;;;;;;;;5037654;28;20398;-62
2021/12/02 05:44:45;;;;;;;1.10;0.20;;;;;;;;;;5038398;28;20025;-62
2021/12/02 05:47:11;;;;;;;1.33;0.30;;;;;;;;;;5042818;28;20045;-63
2021/12/02 05:49:37;;;;;;;0.47;0.30;;;;;;;;;;5042697;28;20025;-65
2021/12/02 05:52:05;;;;;;;1.65;0.10;;;;;;;;;;5039927;28;20032;-64
2021/12/02 05:54:30;;;;;;;0.28;0.20;;;;;;;;;;5037400;28;20482;-63
2021/12/02 05:56:55;;;;;;;0.95;0.63;;;;;;;;;;5036911;28;20094;-65
2021/12/02 05:59:21;;;;;;;3.17;0.30;;;;;;;;;;5019517;28;20120;-61
2021/12/02 06:01:47;;;;;;;1.42;0.40;;;;;;;;;;5037011;28;20133;-64
2021/12/02 06:04:15;;;;;;;1.08;0.35;;;;;;;;;;5039362;28;20033;-60
2021/12/02 06:06:42;;;;;;;0.65;0.30;;;;;;;;;;5037229;28;20403;-66
2021/12/02 06:09:07;;;;;;;1.42;0.38;;;;;;;;;;5038314;28;20069;-63
2021/12/02 06:11:35;;;;;;;0.40;0.28;;;;;;;;;;5038265;28;20084;-62
2021/12/02 06:14:00;;;;;;;0.57;0.32;;;;;;;;;;5036846;28;20786;-62
2021/12/02 06:16:26;;;;;;;0.80;0.30;;;;;;;;;;5035600;28;20135;-64
2021/12/02 06:18:53;;;;;;;1.20;0.55;;;;;;;;;;5037309;28;20064;-61
2021/12/02 06:21:19;;;;;;;0.13;0.13;;;;;;;;;;5037601;28;20057;-63
2021/12/02 06:23:44;;;;;;;0.40;0.32;;;;;;;;;;5037571;28;20120;-64
2021/12/02 06:26:10;;;;;;;1.10;0.40;;;;;;;;;;5037025;28;20103;-64
2021/12/02 06:28:41;;;;;;;2.05;0.57;;;;;;;;;;5033648;28;20033;-61
2021/12/02 06:31:08;;;;;;;0.90;0.32;;;;;;;;;;5038266;28;20030;-64
2021/12/02 06:33:34;;;;;;;1.70;0.57;;;;;;;;;;5024039;28;20029;-62
2021/12/02 06:35:59;;;;;;;1.42;0.40;;;;;;;;;;5037105;28;20032;-64
2021/12/02 06:38:25;;;;;;;1.13;0.20;;;;;;;;;;5068638;28;20549;-63
2021/12/02 06:40:53;;;;;;;0.32;0.20;;;;;;;;;;5037271;28;20031;-64
2021/12/02 06:43:23;;;;;;;0.65;0.45;;;;;;;;;;5041411;28;20064;-64
2021/12/02 06:45:48;;;;;;;1.85;0.40;;;;;;;;;;5038605;28;20096;-63
2021/12/02 06:48:14;;;;;;;1.85;0.30;;;;;;;;;;5038572;28;20028;-62
2021/12/02 06:50:44;;;;;;;2.67;0.38;;;;;;;;;;5036448;28;20057;-63
2021/12/02 06:53:10;;;;;;;0.88;0.40;;;;;;;;;;5034912;28;20064;-63
2021/12/02 06:55:35;;;;;;;1.92;0.50;;;;;;;;;;5034129;28;20107;-60
2021/12/02 06:58:01;;;;;;;0.43;0.20;;;;;;;;;;5036091;28;20178;-65
2021/12/02 07:00:26;;;;;;;0.20;0.05;;;;;;;;;;5035481;28;20128;-63
2021/12/02 07:02:52;;;;;;;1.02;0.30;;;;;;;;;;5034660;28;20052;-63
2021/12/02 07:05:18;;;;;;;0.60;0.35;;;;;;;;;;5039657;28;20021;-62
2021/12/02 07:07:45;;;;;;;0.25;0.10;;;;;;;;;;5039973;28;20132;-64
2021/12/02 07:10:12;;;;;;;0.20;0.17;;;;;;;;;;5038340;28;20029;-66
2021/12/02 07:12:40;;;;;;;0.50;0.30;;;;;;;;;;5035208;28;20056;-64
2021/12/02 07:15:10;;;;;;;0.22;0.20;;;;;;;;;;5037784;28;20024;-65
2021/12/02 07:17:35;;;;;;;1.30;0.20;;;;;;;;;;5036270;28;20055;-63
2021/12/02 07:20:01;;;;;;;3.92;0.40;;;;;;;;;;5034205;28;20808;-64
2021/12/02 07:22:27;;;;;;;0.98;0.40;;;;;;;;;;5033596;28;20463;-63
2021/12/02 07:24:52;;;;;;;0.38;0.25;;;;;;;;;;5052243;28;20033;-63
2021/12/02 07:27:18;;;;;;;2.45;0.40;;;;;;;;;;5033073;28;20049;-65
2021/12/02 07:29:43;;;;;;;0.70;0.15;;;;;;;;;;5036509;28;20304;-64
2021/12/02 07:32:10;;;;;;;3.15;0.40;;;;;;;;;;5037263;28;20044;-63
2021/12/02 07:34:38;;;;;;;0.55;0.20;;;;;;;;;;5040119;28;20024;-64
2021/12/02 07:37:04;;;;;;;1.05;0.28;;;;;;;;;;5038277;28;20350;-64
2021/12/02 07:39:31;;;;;;;1.95;0.40;;;;;;;;;;5040691;28;20026;-62
2021/12/02 07:41:58;;;;;;;2.28;0.20;;;;;;;;;;5040343;28;20049;-61
2021/12/02 07:44:26;;;;;;;0.35;0.15;;;;;;;;;;5038648;28;20041;-64
2021/12/02 07:46:52;;;;;;;0.95;0.40;;;;;;;;;;5038103;28;20130;-62
2021/12/02 07:49:17;;;;;;;0.45;0.20;;;;;;;;;;5038531;28;20068;-63
2021/12/02 07:51:49;;;;;;;0.75;0.30;;;;;;;;;;5037728;28;20033;-62
2021/12/02 07:54:16;;;;;;;2.42;0.57;;;;;;;;;;5039012;28;20037;-63
2021/12/02 07:56:41;;;;;;;0.13;0.13;;;;;;;;;;5039463;28;20223;-63
2021/12/02 07:59:09;;;;;;;0.45;0.20;;;;;;;;;;5039266;28;20127;-62
2021/12/02 08:01:37;;;;;;;3.03;0.10;;;;;;;;;;5039395;28;20049;-64
2021/12/02 08:04:04;;;;;;;1.35;0.35;;;;;;;;;;5038540;28;20033;-63
2021/12/02 08:06:30;;;;;;;1.10;0.30;;;;;;;;;;5036277;28;20082;-62
2021/12/02 08:08:56;;;;;;;1.48;0.30;;;;;;;;;;5039576;28;20039;-63
2021/12/02 08:11:24;;;;;;;0.50;0.20;;;;;;;;;;5039819;28;20036;-61
2021/12/02 08:13:53;;;;;;;0.93;0.35;;;;;;;;;;5039913;28;20021;-62
2021/12/02 08:16:18;;;;;;;1.38;0.32;;;;;;;;;;5037710;28;20045;-62
2021/12/02 08:18:44;;;;;;;0.40;0.30;;;;;;;;;;5042319;28;20029;-64
2021/12/02 08:21:12;;;;;;;0.65;0.28;;;;;;;;;;5038128;28;20086;-65
2021/12/02 08:23:40;;;;;;;0.75;0.35;;;;;;;;;;5037911;28;20029;-63
2021/12/02 08:26:05;;;;;;;1.00;0.40;;;;;;;;;;5038148;28;20063;-64
2021/12/02 08:28:33;;;;;;;0.38;0.38;;;;;;;;;;5037694;28;20629;-64
2021/12/02 08:30:59;;;;;;;0.68;0.40;;;;;;;;;;5038130;28;20494;-63
2021/12/02 08:33:25;;;;;;;0.63;0.35;;;;;;;;;;5039974;28;20025;-64
2021/12/02 08:35:51;;;;;;;2.58;0.50;;;;;;;;;;5037733;28;20029;-62
2021/12/02 08:38:21;;;;;;;1.00;0.60;;;;;;;;;;5038025;28;20171;-62
2021/12/02 08:40:49;;;;;;;0.40;0.20;;;;;;;;;;5051811;28;20061;-62
2021/12/02 08:43:18;;;;;;;2.20;0.40;;;;;;;;;;5035989;28;20060;-63
2021/12/02 08:45:46;;;;;;;2.30;0.40;;;;;;;;;;5037460;28;20642;-63
2021/12/02 08:48:15;;;;;;;1.55;0.25;;;;;;;;;;5037670;28;20022;-64
2021/12/02 08:50:44;;;;;;;0.82;0.63;;;;;;;;;;5038349;28;20492;-63
2021/12/02 08:53:10;;;;;;;1.10;0.43;;;;;;;;;;5036791;28;20530;-63
2021/12/02 08:55:36;;;;;;;0.75;0.30;;;;;;;;;;5038383;28;20087;-66
2021/12/02 08:58:03;;;;;;;0.65;0.30;;;;;;;;;;5036283;28;20029;-63
2021/12/02 09:00:36;;;;;;;0.95;0.35;;;;;;;;;;5036664;28;20064;-62
2021/12/02 09:03:04;;;;;;;0.20;0.20;;;;;;;;;;5038664;28;20033;-64
2021/12/02 09:05:33;;;;;;;1.50;0.57;;;;;;;;;;5038762;28;20108;-62
2021/12/02 09:08:01;;;;;;;0.73;0.30;;;;;;;;;;5039259;28;20083;-62
2021/12/02 09:10:28;;;;;;;0.68;0.43;;;;;;;;;;5037839;28;20526;-62
2021/12/02 09:12:54;;;;;;;0.73;0.30;;;;;;;;;;5038342;28;20485;-61
2021/12/02 09:15:24;;;;;;;0.93;0.50;;;;;;;;;;5039290;28;20029;-61
2021/12/02 09:17:52;;;;;;;1.58;0.35;;;;;;;;;;5039208;28;20124;-62
2021/12/02 09:20:17;;;;;;;1.33;0.35;;;;;;;;;;5055740;28;20167;-63
2021/12/02 09:22:46;;;;;;;0.40;0.30;;;;;;;;;;5038409;28;22006;-62
2021/12/02 09:25:15;;;;;;;0.52;0.20;;;;;;;;;;5041516;28;20470;-60
2021/12/02 09:27:40;;;;;;;1.65;0.50;;;;;;;;;;5037589;28;20044;-63
2021/12/02 09:30:08;;;;;;;2.33;0.28;;;;;;;;;;5036421;28;20029;-64
2021/12/02 09:32:37;;;;;;;1.63;0.65;;;;;;;;;;5036830;28;20040;-64
2021/12/02 09:35:03;;;;;;;0.47;0.20;;;;;;;;;;5035708;28;20033;-62
2021/12/02 09:37:28;;;;;;;0.32;0.28;;;;;;;;;;5036605;28;20175;-64
2021/12/02 09:39:54;;;;;;;2.08;0.30;;;;;;;;;;5036988;28;20120;-63
2021/12/02 09:42:22;;;;;;;0.20;0.10;;;;;;;;;;5035012;28;20075;-65
2021/12/02 09:44:51;;;;;;;1.73;0.50;;;;;;;;;;5038820;28;20029;-63
2021/12/02 09:47:18;;;;;;;1.05;0.40;;;;;;;;;;5035303;28;20208;-61
2021/12/02 09:49:44;;;;;;;0.90;0.40;;;;;;;;;;5036218;28;20025;-63
2021/12/02 09:52:12;;;;;;;0.70;0.20;;;;;;;;;;5036099;28;20173;-63
2021/12/02 09:57:07;;;;;;;0.63;0.30;;;;;;;;;;5041969;28;20479;-62
2021/12/02 09:59:48;;;;;;;0.88;0.30;;;;;;;;;;5042718;28;20045;-63
2021/12/02 10:02:16;;;;;;;0.60;0.30;;;;;;;;;;5042000;28;20468;-61
2021/12/02 10:04:48;;;;;;;0.85;0.40;;;;;;;;;;5044212;28;20040;-66
2021/12/02 10:07:21;;;;;;;1.63;0.20;;;;;;;;;;5040211;28;20029;-63
2021/12/02 10:10:07;;;;;;;0.30;0.28;;;;;;;;;;5072862;28;20324;-62
2021/12/02 10:12:35;;;;;;;1.00;0.43;;;;;;;;;;5037055;28;20162;-62
2021/12/02 10:15:06;;;;;;;0.98;0.28;;;;;;;;;;5037118;28;20123;-64
2021/12/02 10:20:12;;;;;;;0.57;0.10;;;;;;;;;;5036276;28;20036;-63
2021/12/02 10:22:37;;;;;;;0.45;0.28;;;;;;;;;;5035357;28;20052;-65
2021/12/02 10:25:03;;;;;;;0.20;0.20;;;;;;;;;;5036176;28;20025;-65
2021/12/02 10:27:33;;;;;;;0.47;0.28;;;;;;;;;;5037053;28;20024;-63
2021/12/02 10:30:01;;;;;;;0.65;0.15;;;;;;;;;;5034658;28;20021;-63
2021/12/02 10:32:29;;;;;;;0.20;0.10;;;;;;;;;;5035913;28;20064;-62
2021/12/02 10:35:10;;;;;;;1.95;0.40;;;;;;;;;;5037307;28;20051;-62
2021/12/02 10:37:39;;;;;;;0.65;0.20;;;;;;;;;;5037220;28;20115;-64
2021/12/02 10:40:10;;;;;;;0.50;0.40;;;;;;;;;;5037059;28;20334;-64
2021/12/02 10:42:38;;;;;;;0.40;0.28;;;;;;;;;;5035562;28;20029;-64
2021/12/02 10:45:07;;;;;;;0.63;0.30;;;;;;;;;;5035473;28;20503;-63
2021/12/02 10:47:33;;;;;;;0.85;0.30;;;;;;;;;;5068209;28;20033;-66
2021/12/02 10:50:09;;;;;;;0.80;0.30;;;;;;;;;;5045072;28;20029;-63
2021/12/02 10:52:35;;;;;;;0.35;0.35;;;;;;;;;;5035784;28;20111;-64
2021/12/02 10:55:03;;;;;;;0.17;0.13;;;;;;;;;;5036117;28;20419;-65
2021/12/02 10:57:30;;;;;;;0.75;0.35;;;;;;;;;;5038226;28;20028;-65
2021/12/02 10:59:56;;;;;;;0.32;0.20;;;;;;;;;;5035990;28;20049;-60
2021/12/02 11:02:29;;;;;;;0.70;0.30;;;;;;;;;;5036012;28;20455;-64
2021/12/02 11:04:58;;;;;;;0.60;0.17;;;;;;;;;;5035887;28;20028;-64
2021/12/02 11:07:39;;;;;;;0.68;0.20;;;;;;;;;;5035886;28;20018;-64
2021/12/02 11:10:12;;;;;;;0.63;0.30;;;;;;;;;;5034676;28;21976;-63
2021/12/02 11:12:38;;;;;;;0.30;0.30;;;;;;;;;;5036116;28;20029;-64
2021/12/02 11:15:13;;;;;;;0.25;0.20;;;;;;;;;;5035351;28;20670;-66
2021/12/02 11:17:43;;;;;;;0.85;0.30;;;;;;;;;;5033568;28;20128;-64
2021/12/02 11:20:10;;;;;;;0.55;0.30;;;;;;;;;;5067953;28;20037;-64
2021/12/02 11:22:36;;;;;;;0.45;0.20;;;;;;;;;;5038673;28;20052;-62
2021/12/02 11:25:03;;;;;;;0.20;0.20;;;;;;;;;;5039877;28;20041;-63
2021/12/02 11:27:49;;;;;;;0.47;0.40;;;;;;;;;;5040185;28;20100;-65
2021/12/02 11:30:21;;;;;;;0.20;0.10;;;;;;;;;;5041549;28;20056;-65
2021/12/02 11:32:51;;;;;;;1.08;0.30;;;;;;;;;;5042520;28;20072;-62
2021/12/02 11:35:18;;;;;;;0.47;0.20;;;;;;;;;;5048223;28;20028;-65
2021/12/02 11:37:46;;;;;;;1.33;0.30;;;;;;;;;;5046334;28;20028;-62
2021/12/02 11:40:11;;;;;;;0.38;0.20;;;;;;;;;;5041842;28;20554;-63
2021/12/02 11:42:42;;;;;;;1.45;0.40;;;;;;;;;;5057493;28;20042;-64
2021/12/02 11:45:09;;;;;;;2.53;0.50;;;;;;;;;;5040085;28;20108;-61
2021/12/02 11:47:34;;;;;;;0.28;0.28;;;;;;;;;;5041689;28;20399;-63
2021/12/02 11:50:03;;;;;;;2.25;0.57;;;;;;;;;;5041201;28;20029;-60
2021/12/02 11:52:29;;;;;;;0.68;0.20;;;;;;;;;;5039113;28;20131;-64
2021/12/02 11:54:58;;;;;;;0.40;0.40;;;;;;;;;;5040608;28;20104;-62
2021/12/02 11:57:25;;;;;;;0.85;0.20;;;;;;;;;;5040177;28;20128;-63
2021/12/02 11:59:56;;;;;;;0.35;0.28;;;;;;;;;;5037471;28;20041;-62
2021/12/02 12:02:21;;;;;;;0.68;0.50;;;;;;;;;;5039328;28;20030;-62
2021/12/02 12:04:54;;;;;;;0.68;0.30;;;;;;;;;;5038321;28;20627;-62
2021/12/02 12:07:22;;;;;;;1.15;0.30;;;;;;;;;;5038295;28;20033;-60
2021/12/02 12:09:47;;;;;;;0.28;0.20;;;;;;;;;;5038486;28;20116;-62
2021/12/02 12:12:15;;;;;;;0.43;0.40;;;;;;;;;;5041211;28;20526;-63
2021/12/02 12:14:42;;;;;;;1.85;0.60;;;;;;;;;;5038733;28;20029;-63
2021/12/02 12:17:07;;;;;;;1.55;0.30;;;;;;;;;;5037053;28;20045;-60
2021/12/02 12:19:37;;;;;;;0.10;0.10;;;;;;;;;;5037644;28;20731;-63
2021/12/02 12:22:04;;;;;;;0.22;0.15;;;;;;;;;;5037181;28;20037;-64
2021/12/02 12:24:43;;;;;;;2.58;0.55;;;;;;;;;;5037694;28;20736;-64
2021/12/02 12:27:12;;;;;;;1.65;0.38;;;;;;;;;;5038622;28;20033;-62
2021/12/02 12:29:40;;;;;;;2.65;0.50;;;;;;;;;;5034663;28;20031;-63
2021/12/02 12:32:11;;;;;;;0.68;0.35;;;;;;;;;;5070524;28;20125;-61
2021/12/02 12:34:48;;;;;;;2.47;0.52;;;;;;;;;;5036370;28;20053;-63
2021/12/02 12:37:21;;;;;;;1.05;0.40;;;;;;;;;;5036007;28;20041;-63
2021/12/02 12:40:07;;;;;;;0.55;0.20;;;;;;;;;;5041175;28;20037;-61
2021/12/02 12:42:34;;;;;;;1.98;0.63;;;;;;;;;;5037430;28;20036;-61
2021/12/02 12:45:01;;;;;;;1.55;0.45;;;;;;;;;;5036801;28;20064;-61
2021/12/02 12:47:45;;;;;;;0.85;0.28;;;;;;;;;;5032738;28;20035;-64
2021/12/02 12:50:26;;;;;;;0.32;0.30;;;;;;;;;;5036607;28;20054;-63
2021/12/02 12:52:55;;;;;;;0.90;0.38;;;;;;;;;;5037539;28;20087;-63
2021/12/02 12:55:23;;;;;;;1.13;0.40;;;;;;;;;;5035160;28;20025;-62
2021/12/02 12:58:06;;;;;;;1.40;0.20;;;;;;;;;;5036513;28;20755;-63
2021/12/02 13:00:37;;;;;;;0.70;0.40;;;;;;;;;;5036796;28;20040;-61
2021/12/02 13:03:15;;;;;;;1.65;0.30;;;;;;;;;;5035244;28;20037;-61
2021/12/02 13:05:42;;;;;;;2.60;0.43;;;;;;;;;;5038348;28;20032;-63
2021/12/02 13:08:18;;;;;;;0.45;0.20;;;;;;;;;;5039130;28;20024;-66
2021/12/02 13:10:54;;;;;;;0.80;0.30;;;;;;;;;;5039031;28;20033;-64
2021/12/02 13:13:24;;;;;;;0.55;0.15;;;;;;;;;;5069721;28;20314;-62
2021/12/02 13:15:49;;;;;;;0.28;0.10;;;;;;;;;;5036426;28;20041;-63
2021/12/02 13:18:34;;;;;;;0.20;0.10;;;;;;;;;;5036300;28;20099;-62
2021/12/02 13:21:20;;;;;;;0.35;0.20;;;;;;;;;;5037307;28;20098;-63
2021/12/02 13:23:55;;;;;;;0.20;0.10;;;;;;;;;;5035096;28;20568;-61
2021/12/02 13:26:22;;;;;;;0.93;0.30;;;;;;;;;;5039813;28;20037;-63
2021/12/02 13:28:49;;;;;;;0.35;0.30;;;;;;;;;;5035558;28;20098;-62
2021/12/02 13:31:15;;;;;;;0.20;0.13;;;;;;;;;;5035026;28;20417;-60
2021/12/02 13:33:46;;;;;;;0.25;0.15;;;;;;;;;;5035887;28;20034;-62
2021/12/02 13:36:13;;;;;;;0.65;0.50;;;;;;;;;;5039355;28;20092;-62
2021/12/02 13:38:40;;;;;;;0.20;0.10;;;;;;;;;;5052203;28;20025;-63
2021/12/02 13:41:13;;;;;;;1.65;0.60;;;;;;;;;;5036673;28;20045;-64
2021/12/02 13:44:03;;;;;;;0.43;0.32;;;;;;;;;;5036509;28;20075;-63
2021/12/02 13:46:51;;;;;;;2.40;2.10;;;;;;;;;;5035759;28;20025;-62
2021/12/02 13:49:18;;;;;;;1.38;0.43;;;;;;;;;;5036118;28;20040;-62
2021/12/02 13:54:36;;;;;;;1.38;0.35;;;;;;;;;;5041987;28;20025;-62
2021/12/02 13:57:21;;;;;;;2.45;0.55;;;;;;;;;;5039942;28;20338;-62
2021/12/02 13:59:47;;;;;;;3.05;0.52;;;;;;;;;;5040878;28;20049;-63
2021/12/02 14:02:18;;;;;;;1.08;0.45;;;;;;;;;;5041089;28;20453;-62
2021/12/02 14:04:45;;;;;;;0.25;0.15;;;;;;;;;;5036789;28;20079;-62
2021/12/02 14:07:15;;;;;;;0.30;0.20;;;;;;;;;;5069446;28;20552;-61
2021/12/02 14:09:51;;;;;;;2.28;0.40;;;;;;;;;;5037209;28;20029;-62
2021/12/02 14:12:20;;;;;;;0.77;0.20;;;;;;;;;;5041611;28;20037;-60
2021/12/02 14:14:57;;;;;;;0.93;0.30;;;;;;;;;;5037635;28;20025;-60
2021/12/02 14:17:24;;;;;;;1.10;0.40;;;;;;;;;;5033541;28;20650;-62
2021/12/02 14:19:59;;;;;;;1.95;0.52;;;;;;;;;;5034543;28;20192;-61
2021/12/02 14:22:25;;;;;;;0.95;0.13;;;;;;;;;;5036723;28;20033;-63
2021/12/02 14:24:52;;;;;;;1.00;0.38;;;;;;;;;;5036551;28;20033;-59
2021/12/02 14:27:18;;;;;;;0.20;0.20;;;;;;;;;;5035549;28;20152;-63
2021/12/02 14:29:43;;;;;;;1.45;0.35;;;;;;;;;;5034797;28;20520;-61
2021/12/02 14:32:09;;;;;;;1.00;0.40;;;;;;;;;;5033861;28;20037;-64
2021/12/02 14:34:34;;;;;;;0.55;0.20;;;;;;;;;;5032130;28;20035;-61
2021/12/02 14:37:05;;;;;;;3.05;0.52;;;;;;;;;;5033536;28;20385;-61
2021/12/02 14:39:37;;;;;;;0.45;0.30;;;;;;;;;;5050419;28;20533;-60
2021/12/02 14:42:03;;;;;;;0.77;0.40;;;;;;;;;;5037202;28;20032;-60
2021/12/02 14:44:29;;;;;;;0.63;0.17;;;;;;;;;;5035109;28;20036;-60
2021/12/02 14:46:58;;;;;;;0.40;0.17;;;;;;;;;;5032558;28;20509;-61
2021/12/02 14:51:55;;;;;;;0.57;0.30;;;;;;;;;;5033230;28;20355;-60
2021/12/02 14:54:27;;;;;;;1.13;0.38;;;;;;;;;;5034751;28;20037;-62
2021/12/02 14:56:52;;;;;;;1.88;0.40;;;;;;;;;;5035154;28;20618;-62
2021/12/02 14:59:24;;;;;;;0.73;0.30;;;;;;;;;;5034491;28;20043;-60
2021/12/02 15:01:58;;;;;;;1.05;0.60;;;;;;;;;;5031988;28;20410;-62
2021/12/02 15:04:26;;;;;;;1.58;0.30;;;;;;;;;;5035828;28;20068;-61
2021/12/02 15:06:51;;;;;;;0.90;0.30;;;;;;;;;;5035750;28;20416;-61
2021/12/02 15:09:37;;;;;;;0.93;0.30;;;;;;;;;;5036334;28;20178;-62
2021/12/02 15:12:34;;;;;;;0.60;0.20;;;;;;;;;;5036879;28;20086;-63
2021/12/02 15:15:20;;;;;;;2.20;0.55;;;;;;;;;;5035127;28;20542;-63